createdAt,value
2019-01-31T00:01:31.098Z,99691.95
2019-01-31T00:04:54.160Z,99690.26
2019-01-31T00:07:48.688Z,99692.87
2019-01-31T00:10:37.872Z,99691.05
2019-01-31T00:13:31.102Z,99691.16
2019-01-31T00:16:26.396Z,99695.99
2019-01-31T00:19:27.474Z,99692.47
2019-01-31T00:22:30.271Z,99692.93
2019-01-31T00:25:25.765Z,99692.55
2019-01-31T00:28:11.068Z,99709.05
2019-01-31T00:30:57.307Z,99706.44
2019-01-31T00:34:14.736Z,99706.50
2019-01-31T00:36:59.981Z,99710.41
2019-01-31T00:40:00.381Z,99705.66
2019-01-31T00:43:11.697Z,99702.57
2019-01-31T00:46:22.293Z,99709.95
2019-01-31T00:49:14.698Z,99714.14
2019-01-31T00:52:36.838Z,99703.89
2019-01-31T00:55:47.580Z,99704.85
2019-01-31T00:58:51.626Z,99709.23
2019-01-31T01:01:34.257Z,99714.44
2019-01-31T01:04:51.170Z,99716.59
2019-01-31T01:07:43.902Z,99721.48
2019-01-31T01:10:28.195Z,99724.50
2019-01-31T01:13:22.529Z,99725.45
2019-01-31T01:16:22.776Z,99728.08
2019-01-31T01:19:26.272Z,99730.29
2019-01-31T01:22:46.329Z,99733.86
2019-01-31T01:25:42.583Z,99732.14
2019-01-31T01:28:21.740Z,99724.39
2019-01-31T01:31:32.851Z,99717.89
2019-01-31T01:34:32.001Z,99720.16
2019-01-31T01:37:21.688Z,99719.82
2019-01-31T01:40:35.527Z,99725.20
2019-01-31T01:43:26.024Z,99730.57
2019-01-31T01:46:23.680Z,99736.80
2019-01-31T01:49:18.351Z,99730.39
2019-01-31T01:52:09.808Z,99733.55
2019-01-31T01:55:15.468Z,99735.36
2019-01-31T01:58:35.659Z,99731.95
2019-01-31T02:01:27.164Z,99738.95
2019-01-31T02:04:24.020Z,99745.97
2019-01-31T02:07:34.389Z,99729.99
2019-01-31T02:10:23.481Z,99733.94
2019-01-31T02:13:43.246Z,99729.69
2019-01-31T02:16:40.499Z,99727.13
2019-01-31T02:19:57.361Z,99730.23
2019-01-31T02:22:41.414Z,99729.88
2019-01-31T02:25:18.294Z,99725.13
2019-01-31T02:28:40.092Z,99726.91
2019-01-31T02:31:42.638Z,99729.11
2019-01-31T02:34:47.281Z,99731.30
2019-01-31T02:37:37.444Z,99732.61
2019-01-31T02:40:21.632Z,99732.16
2019-01-31T02:42:56.765Z,99736.06
2019-01-31T02:46:07.974Z,99735.17
2019-01-31T02:48:55.774Z,99728.71
2019-01-31T02:52:09.756Z,99730.81
2019-01-31T02:54:47.837Z,99730.33
2019-01-31T02:57:50.856Z,99728.13
2019-01-31T03:00:41.941Z,99727.22
2019-01-31T03:03:35.421Z,99726.33
2019-01-31T03:06:58.386Z,99737.15
2019-01-31T03:09:54.582Z,99734.14
2019-01-31T03:12:41.632Z,99740.20
2019-01-31T03:15:17.081Z,99740.23
2019-01-31T03:18:05.314Z,99733.73
2019-01-31T03:21:31.418Z,99732.34
2019-01-31T03:24:16.292Z,99733.23
2019-01-31T03:26:58.019Z,99729.69
2019-01-31T03:29:51.679Z,99742.22
2019-01-31T03:32:45.989Z,99732.61
2019-01-31T03:35:43.357Z,99741.63
2019-01-31T03:38:44.089Z,99735.91
2019-01-31T03:41:37.708Z,99747.52
2019-01-31T03:44:33.488Z,99752.58
2019-01-31T03:47:24.849Z,99751.53
2019-01-31T03:50:07.199Z,99748.81
2019-01-31T03:53:07.172Z,99747.40
2019-01-31T03:56:15.708Z,99746.89
2019-01-31T03:59:26.563Z,99747.30
2019-01-31T04:02:40.861Z,99753.80
2019-01-31T04:05:25.412Z,99760.27
2019-01-31T04:07:54.695Z,99770.23
2019-01-31T04:10:24.014Z,99777.60
2019-01-31T04:12:53.393Z,99771.48
2019-01-31T04:15:22.640Z,99780.11
2019-01-31T04:17:52.020Z,99774.44
2019-01-31T04:20:21.261Z,99783.95
2019-01-31T04:22:50.634Z,99788.27
2019-01-31T04:25:19.979Z,99784.75
2019-01-31T04:27:49.262Z,99786.34
2019-01-31T04:30:18.510Z,99776.81
2019-01-31T04:32:47.827Z,99780.73
2019-01-31T04:35:17.096Z,99782.48
2019-01-31T04:37:46.351Z,99791.56
2019-01-31T04:40:15.713Z,99790.70
2019-01-31T04:42:45.031Z,99791.10
2019-01-31T04:45:14.346Z,99792.00
2019-01-31T04:47:43.628Z,99791.56
2019-01-31T04:50:13.926Z,99800.27
2019-01-31T04:52:43.233Z,99807.20
2019-01-31T04:55:12.549Z,99795.91
2019-01-31T04:57:41.829Z,99793.75
2019-01-31T05:00:13.940Z,99797.63
2019-01-31T05:02:43.237Z,99794.61
2019-01-31T05:05:12.507Z,99793.30
2019-01-31T05:07:41.801Z,99801.99
2019-01-31T05:10:12.139Z,99796.78
2019-01-31T05:12:41.436Z,99803.79
2019-01-31T05:15:12.509Z,99805.51
2019-01-31T05:17:41.783Z,99808.56
2019-01-31T05:20:13.997Z,99810.64
2019-01-31T05:22:43.277Z,99818.47
2019-01-31T05:25:13.422Z,99818.47
2019-01-31T05:27:42.687Z,99811.05
2019-01-31T05:30:13.518Z,99809.73
2019-01-31T05:32:42.917Z,99818.82
2019-01-31T05:35:12.446Z,99818.81
2019-01-31T05:37:41.844Z,99820.52
2019-01-31T05:40:12.992Z,99820.52
2019-01-31T05:42:42.358Z,99823.52
2019-01-31T05:45:13.578Z,99820.00
2019-01-31T05:47:42.902Z,99821.72
2019-01-31T05:50:14.490Z,99819.11
2019-01-31T05:52:43.871Z,99825.67
2019-01-31T05:55:13.714Z,99822.20
2019-01-31T05:57:43.081Z,99818.30
2019-01-31T06:00:15.798Z,99821.88
2019-01-31T06:02:45.281Z,99822.83
2019-01-31T06:05:14.513Z,99828.46
2019-01-31T06:07:43.814Z,99827.59
2019-01-31T06:10:13.171Z,99826.36
2019-01-31T06:12:42.496Z,99831.63
2019-01-31T06:15:13.744Z,99840.36
2019-01-31T06:17:43.046Z,99831.84
2019-01-31T06:20:15.112Z,99837.95
2019-01-31T06:22:44.439Z,99841.47
2019-01-31T06:25:13.667Z,99841.51
2019-01-31T06:27:43.041Z,99844.62
2019-01-31T06:30:14.080Z,99848.59
2019-01-31T06:32:43.377Z,99851.69
2019-01-31T06:35:12.741Z,99859.11
2019-01-31T06:37:42.063Z,99854.79
2019-01-31T06:40:14.029Z,99864.41
2019-01-31T06:42:43.356Z,99862.70
2019-01-31T06:45:15.190Z,99861.05
2019-01-31T06:47:44.588Z,99863.69
2019-01-31T06:50:13.980Z,99864.19
2019-01-31T06:52:43.534Z,99875.06
2019-01-31T06:55:12.949Z,99876.86
2019-01-31T06:57:42.304Z,99883.89
2019-01-31T07:00:14.576Z,99886.86
2019-01-31T07:02:43.980Z,99885.88
2019-01-31T07:05:13.401Z,99885.20
2019-01-31T07:07:42.783Z,99894.41
2019-01-31T07:10:23.987Z,99895.20
2019-01-31T07:12:53.296Z,99892.73
2019-01-31T07:15:22.657Z,99890.28
2019-01-31T07:17:51.930Z,99891.76
2019-01-31T07:20:21.272Z,99896.20
2019-01-31T07:22:50.551Z,99898.05
2019-01-31T07:25:21.510Z,99905.50
2019-01-31T07:27:50.787Z,99904.20
2019-01-31T07:30:20.361Z,99908.11
2019-01-31T07:32:49.798Z,99912.38
2019-01-31T07:35:19.124Z,99914.89
2019-01-31T07:37:48.399Z,99916.02
2019-01-31T07:40:19.203Z,99914.95
2019-01-31T07:42:48.498Z,99921.31
2019-01-31T07:45:20.651Z,99926.69
2019-01-31T07:47:50.034Z,99925.07
2019-01-31T07:50:19.451Z,99926.97
2019-01-31T07:52:48.816Z,99928.16
2019-01-31T07:55:18.349Z,99929.85
2019-01-31T07:57:47.729Z,99925.15
2019-01-31T08:00:17.465Z,99932.23
2019-01-31T08:02:46.844Z,99932.19
2019-01-31T08:05:17.628Z,99931.75
2019-01-31T08:07:47.090Z,99928.03
2019-01-31T08:10:18.973Z,99928.88
2019-01-31T08:12:48.374Z,99931.52
2019-01-31T08:15:18.089Z,99936.88
2019-01-31T08:17:47.508Z,99941.72
2019-01-31T08:20:16.962Z,99931.78
2019-01-31T08:22:46.245Z,99933.49
2019-01-31T08:25:17.551Z,99929.67
2019-01-31T08:27:46.898Z,99932.22
2019-01-31T08:30:21.776Z,99940.35
2019-01-31T08:32:51.128Z,99950.13
2019-01-31T08:35:20.459Z,99945.09
2019-01-31T08:37:49.789Z,99942.57
2019-01-31T08:40:19.262Z,99952.13
2019-01-31T08:42:48.574Z,99949.28
2019-01-31T08:45:17.830Z,99955.16
2019-01-31T08:47:47.302Z,99956.53
2019-01-31T08:50:18.613Z,99953.06
2019-01-31T08:52:47.919Z,99960.11
2019-01-31T08:55:17.177Z,99960.16
2019-01-31T08:57:47.570Z,99964.92
2019-01-31T09:00:23.694Z,99970.81
2019-01-31T09:02:52.988Z,99979.98
2019-01-31T09:05:22.674Z,99976.20
2019-01-31T09:07:52.028Z,99977.02
2019-01-31T09:10:23.632Z,99976.78
2019-01-31T09:12:52.990Z,99986.48
2019-01-31T09:15:23.700Z,99978.17
2019-01-31T09:17:52.989Z,99982.73
2019-01-31T09:20:28.774Z,99982.06
2019-01-31T09:23:21.484Z,99983.48
2019-01-31T09:26:18.808Z,99980.17
2019-01-31T09:29:31.194Z,99982.84
2019-01-31T09:32:38.051Z,99978.94
2019-01-31T09:35:30.952Z,99981.98
2019-01-31T09:38:33.917Z,99985.75
2019-01-31T09:41:33.839Z,99982.22
2019-01-31T09:44:30.628Z,99991.30
2019-01-31T09:47:42.477Z,99988.80
2019-01-31T09:50:36.097Z,99990.11
2019-01-31T09:53:34.450Z,99995.27
2019-01-31T09:56:36.508Z,99998.22
2019-01-31T09:59:53.817Z,99991.65
2019-01-31T10:03:20.258Z,99991.19
2019-01-31T10:06:27.359Z,99985.58
2019-01-31T10:09:59.377Z,99995.10
2019-01-31T10:13:12.075Z,99990.22
2019-01-31T10:16:03.675Z,99990.52
2019-01-31T10:19:23.306Z,99993.13
2019-01-31T10:22:03.327Z,99997.83
2019-01-31T10:25:09.014Z,99998.49
2019-01-31T10:28:14.857Z,99998.66
2019-01-31T10:31:17.596Z,100001.51
2019-01-31T10:34:31.948Z,99997.88
2019-01-31T10:37:28.742Z,99990.30
2019-01-31T10:40:21.437Z,99990.09
2019-01-31T10:43:41.362Z,99989.81
2019-01-31T10:46:41.707Z,99987.75
2019-01-31T10:49:58.672Z,99989.77
2019-01-31T10:53:06.783Z,99985.81
2019-01-31T10:55:54.343Z,99984.75
2019-01-31T10:58:58.047Z,99981.83
2019-01-31T11:02:21.386Z,99984.50
2019-01-31T11:05:22.497Z,99980.35
2019-01-31T11:08:23.896Z,99981.95
2019-01-31T11:11:02.118Z,99982.95
2019-01-31T11:14:12.805Z,99980.22
2019-01-31T11:17:16.982Z,99976.13
2019-01-31T11:20:14.715Z,99975.52
2019-01-31T11:23:17.350Z,99972.17
2019-01-31T11:26:30.281Z,99969.37
2019-01-31T11:29:39.701Z,99969.42
2019-01-31T11:32:45.402Z,99963.53
2019-01-31T11:35:54.828Z,99968.04
2019-01-31T11:38:52.978Z,99958.33
2019-01-31T11:41:54.066Z,99948.16
2019-01-31T11:44:57.725Z,99949.44
2019-01-31T11:47:49.847Z,99949.44
2019-01-31T11:50:46.961Z,99947.14
2019-01-31T11:53:33.010Z,99938.02
2019-01-31T11:56:38.988Z,99941.25
2019-01-31T11:59:08.305Z,99926.38
2019-01-31T12:01:37.834Z,99927.17
2019-01-31T12:04:12.494Z,99924.80
2019-01-31T12:06:41.841Z,99922.88
2019-01-31T12:09:21.909Z,99922.62
2019-01-31T12:11:51.850Z,99921.11
2019-01-31T12:14:21.162Z,99916.80
2019-01-31T12:16:50.563Z,99907.66
2019-01-31T12:19:19.781Z,99910.49
2019-01-31T12:21:49.105Z,99911.48
2019-01-31T12:24:18.410Z,99905.92
2019-01-31T12:26:47.704Z,99898.33
2019-01-31T12:29:17.063Z,99901.05
2019-01-31T12:31:46.343Z,99894.79
2019-01-31T12:34:15.640Z,99893.48
2019-01-31T12:36:44.922Z,99892.70
2019-01-31T12:39:14.197Z,99890.42
2019-01-31T12:41:43.513Z,99886.44
2019-01-31T12:44:12.783Z,99888.22
2019-01-31T12:46:42.061Z,99891.37
2019-01-31T12:49:11.360Z,99893.95
2019-01-31T12:51:40.620Z,99889.59
2019-01-31T12:54:09.906Z,99883.89
2019-01-31T12:56:39.348Z,99879.72
2019-01-31T12:59:08.655Z,99880.30
2019-01-31T13:01:37.969Z,99871.34
2019-01-31T13:04:09.166Z,99867.42
2019-01-31T13:06:38.509Z,99866.71
2019-01-31T13:09:09.537Z,99876.53
2019-01-31T13:11:39.004Z,99877.88
2019-01-31T13:14:08.307Z,99867.52
2019-01-31T13:16:37.585Z,99864.77
2019-01-31T13:19:06.906Z,99861.92
2019-01-31T13:21:36.244Z,99856.02
2019-01-31T13:24:05.622Z,99860.65
2019-01-31T13:26:34.921Z,99858.49
2019-01-31T13:29:04.561Z,99857.64
2019-01-31T13:31:33.833Z,99852.84
2019-01-31T13:34:03.094Z,99854.60
2019-01-31T13:36:32.544Z,99851.73
2019-01-31T13:39:01.977Z,99854.86
2019-01-31T13:41:31.180Z,99846.86
2019-01-31T13:44:00.636Z,99843.31
2019-01-31T13:46:29.960Z,99847.53
2019-01-31T13:48:59.219Z,99846.81
2019-01-31T13:51:28.536Z,99841.06
2019-01-31T13:53:57.876Z,99852.31
2019-01-31T13:56:27.108Z,99847.23
2019-01-31T13:58:56.390Z,99846.33
2019-01-31T14:01:25.740Z,99849.78
2019-01-31T14:03:55.008Z,99847.87
2019-01-31T14:06:24.295Z,99853.86
2019-01-31T14:08:53.612Z,99858.27
2019-01-31T14:11:22.941Z,99851.64
2019-01-31T14:13:52.230Z,99847.75
2019-01-31T14:16:21.530Z,99848.20
2019-01-31T14:18:53.395Z,99850.39
2019-01-31T14:21:20.164Z,99844.30
2019-01-31T14:23:49.439Z,99848.84
2019-01-31T14:26:18.713Z,99849.11
2019-01-31T14:28:48.179Z,99851.09
2019-01-31T14:31:17.352Z,99849.89
2019-01-31T14:33:46.609Z,99848.87
2019-01-31T14:36:15.881Z,99847.26
2019-01-31T14:38:45.142Z,99847.52
2019-01-31T14:41:16.560Z,99851.72
2019-01-31T14:43:46.005Z,99847.10
2019-01-31T14:46:13.070Z,99837.88
2019-01-31T14:48:42.342Z,99842.58
2019-01-31T14:51:11.606Z,99844.36
2019-01-31T14:53:41.118Z,99843.66
2019-01-31T14:56:10.384Z,99851.62
2019-01-31T14:58:39.677Z,99841.93
2019-01-31T15:01:08.967Z,99846.09
2019-01-31T15:03:38.371Z,99845.76
2019-01-31T15:06:07.663Z,99849.72
2019-01-31T15:08:36.984Z,99842.92
2019-01-31T15:11:06.302Z,99851.36
2019-01-31T15:13:35.621Z,99850.28
2019-01-31T15:16:05.038Z,99850.66
2019-01-31T15:18:34.380Z,99850.36
2019-01-31T15:21:03.692Z,99850.27
2019-01-31T15:23:32.958Z,99852.03
2019-01-31T15:26:02.315Z,99851.57
2019-01-31T15:28:31.583Z,99856.37
2019-01-31T15:31:00.923Z,99910.72
2019-01-31T15:33:30.195Z,99912.09
2019-01-31T15:35:59.465Z,99862.28
2019-01-31T15:38:28.826Z,99866.05
2019-01-31T15:40:58.088Z,99866.05
2019-01-31T15:43:27.442Z,99867.98
2019-01-31T15:45:56.742Z,99857.71
2019-01-31T15:48:26.255Z,99865.28
2019-01-31T15:50:55.550Z,99862.23
2019-01-31T15:53:24.880Z,99864.92
2019-01-31T15:55:54.327Z,99871.06
2019-01-31T15:58:23.688Z,99870.16
2019-01-31T16:00:55.121Z,99873.13
2019-01-31T16:03:25.673Z,99876.97
2019-01-31T16:05:54.887Z,99869.89
2019-01-31T16:08:24.680Z,99872.81
2019-01-31T16:10:54.048Z,99865.65
2019-01-31T16:13:23.332Z,99865.42
2019-01-31T16:15:52.758Z,99870.87
2019-01-31T16:18:22.038Z,99870.62
2019-01-31T16:20:51.310Z,99874.23
2019-01-31T16:23:20.664Z,99869.98
2019-01-31T16:25:49.963Z,99879.27
2019-01-31T16:28:19.246Z,99869.86
2019-01-31T16:30:48.618Z,99872.59
2019-01-31T16:33:18.037Z,99867.91
2019-01-31T16:35:48.613Z,99864.11
2019-01-31T16:38:17.962Z,99873.31
2019-01-31T16:40:47.587Z,99870.30
2019-01-31T16:43:16.874Z,99869.91
2019-01-31T16:45:46.399Z,99865.62
2019-01-31T16:48:15.440Z,99872.21
2019-01-31T16:50:44.722Z,99875.33
2019-01-31T16:53:14.009Z,99867.16
2019-01-31T16:55:43.252Z,99871.14
2019-01-31T16:58:12.614Z,99868.15
2019-01-31T17:00:42.003Z,99866.09
2019-01-31T17:03:13.211Z,99868.75
2019-01-31T17:05:40.598Z,99864.45
2019-01-31T17:08:09.864Z,99867.53
2019-01-31T17:10:39.262Z,99870.18
2019-01-31T17:13:08.532Z,99866.28
2019-01-31T17:15:37.832Z,99861.56
2019-01-31T17:18:07.697Z,99859.41
2019-01-31T17:20:39.535Z,99859.48
2019-01-31T17:23:08.856Z,99854.36
2019-01-31T17:25:38.174Z,99846.19
2019-01-31T17:28:07.484Z,99851.46
2019-01-31T17:30:36.884Z,99840.23
2019-01-31T17:33:06.263Z,99845.46
2019-01-31T17:35:35.600Z,99839.89
2019-01-31T17:38:04.881Z,99836.89
2019-01-31T17:40:36.556Z,99839.09
2019-01-31T17:43:06.640Z,99834.79
2019-01-31T17:45:36.228Z,99839.62
2019-01-31T17:48:06.306Z,99837.50
2019-01-31T17:50:35.686Z,99839.66
2019-01-31T17:53:04.986Z,99831.05
2019-01-31T17:55:34.424Z,99831.09
2019-01-31T17:58:03.708Z,99830.69
2019-01-31T18:00:51.802Z,99838.95
2019-01-31T18:03:21.114Z,99835.09
2019-01-31T18:05:50.395Z,99836.41
2019-01-31T18:08:19.808Z,99832.50
2019-01-31T18:10:49.145Z,99831.65
2019-01-31T18:13:18.452Z,99834.26
2019-01-31T18:15:55.374Z,99832.95
2019-01-31T18:18:24.723Z,99839.02
2019-01-31T18:20:54.048Z,99845.53
2019-01-31T18:23:23.590Z,99838.97
2019-01-31T18:25:52.990Z,99835.89
2019-01-31T18:28:22.400Z,99834.49
2019-01-31T18:30:51.824Z,99831.79
2019-01-31T18:33:21.163Z,99833.03
2019-01-31T18:35:50.521Z,99828.62
2019-01-31T18:38:19.953Z,99834.13
2019-01-31T18:40:49.312Z,99831.91
2019-01-31T18:43:18.641Z,99831.80
2019-01-31T18:45:53.553Z,99828.69
2019-01-31T18:48:17.261Z,99827.72
2019-01-31T18:50:46.590Z,99829.80
2019-01-31T18:53:15.922Z,99828.00
2019-01-31T18:55:45.295Z,99820.56
2019-01-31T18:58:14.680Z,99824.47
2019-01-31T19:00:46.618Z,99624.91
2019-01-31T19:03:15.918Z,99821.41
2019-01-31T19:05:45.263Z,99830.94
2019-01-31T19:08:14.679Z,99820.50
2019-01-31T19:10:44.088Z,99823.96
2019-01-31T19:13:14.284Z,99823.50
2019-01-31T19:15:46.293Z,99829.95
2019-01-31T19:18:13.040Z,99826.40
2019-01-31T19:20:42.509Z,99825.02
2019-01-31T19:23:11.876Z,99834.61
2019-01-31T19:25:41.288Z,99825.45
2019-01-31T19:28:13.176Z,99821.95
2019-01-31T19:30:40.851Z,99825.87
2019-01-31T19:33:10.279Z,99818.48
2019-01-31T19:35:39.630Z,99818.50
2019-01-31T19:38:09.908Z,99815.95
2019-01-31T19:40:41.736Z,99817.27
2019-01-31T19:43:11.092Z,99822.14
2019-01-31T19:45:50.556Z,99803.94
2019-01-31T19:48:19.823Z,99805.23
2019-01-31T19:50:49.144Z,99798.72
2019-01-31T19:53:18.502Z,99805.64
2019-01-31T19:55:47.789Z,99798.66
2019-01-31T19:58:17.100Z,99799.50
2019-01-31T20:00:46.747Z,99797.69
2019-01-31T20:03:16.189Z,99795.09
2019-01-31T20:05:45.394Z,99794.23
2019-01-31T20:08:14.816Z,99794.66
2019-01-31T20:10:44.178Z,99792.98
2019-01-31T20:13:13.607Z,99790.95
2019-01-31T20:15:42.943Z,99794.98
2019-01-31T20:18:12.334Z,99796.42
2019-01-31T20:20:42.930Z,99795.22
2019-01-31T20:23:13.933Z,99785.31
2019-01-31T20:25:43.456Z,99788.88
2019-01-31T20:28:12.839Z,99788.05
2019-01-31T20:30:42.299Z,99787.70
2019-01-31T20:33:11.575Z,99780.84
2019-01-31T20:35:40.867Z,99784.36
2019-01-31T20:38:10.184Z,99785.27
2019-01-31T20:40:41.207Z,99783.16
2019-01-31T20:43:10.587Z,99786.97
2019-01-31T20:45:39.910Z,99783.95
2019-01-31T20:48:09.635Z,99785.61
2019-01-31T20:50:40.959Z,99780.33
2019-01-31T20:53:10.780Z,99787.66
2019-01-31T20:55:40.108Z,99781.91
2019-01-31T20:58:09.458Z,99781.41
2019-01-31T21:00:43.716Z,99781.34
2019-01-31T21:03:13.137Z,99776.96
2019-01-31T21:05:43.021Z,99775.54
2019-01-31T21:08:13.702Z,99775.08
2019-01-31T21:10:43.382Z,99772.42
2019-01-31T21:13:12.747Z,99773.72
2019-01-31T21:15:42.061Z,99764.14
2019-01-31T21:18:11.348Z,99762.83
2019-01-31T21:20:40.807Z,99754.56
2019-01-31T21:23:10.186Z,99755.88
2019-01-31T21:25:39.538Z,99752.86
2019-01-31T21:28:08.851Z,99748.56
2019-01-31T21:30:42.304Z,99749.84
2019-01-31T21:33:11.660Z,99751.62
2019-01-31T21:35:41.377Z,99748.17
2019-01-31T21:38:10.684Z,99745.16
2019-01-31T21:40:40.360Z,99740.45
2019-01-31T21:43:09.783Z,99743.52
2019-01-31T21:45:39.329Z,99737.02
2019-01-31T21:48:10.537Z,99737.12
2019-01-31T21:50:39.976Z,99731.97
2019-01-31T21:53:09.744Z,99732.88
2019-01-31T21:55:39.105Z,99726.94
2019-01-31T21:58:08.425Z,99733.11
2019-01-31T22:00:37.762Z,99732.74
2019-01-31T22:03:07.938Z,99733.77
2019-01-31T22:05:37.251Z,99728.25
2019-01-31T22:08:06.804Z,99734.44
2019-01-31T22:10:36.152Z,99728.92
2019-01-31T22:13:05.857Z,99724.16
2019-01-31T22:15:35.244Z,99726.42
2019-01-31T22:18:05.531Z,99721.53
2019-01-31T22:20:34.918Z,99717.77
2019-01-31T22:23:04.375Z,99713.69
2019-01-31T22:25:33.696Z,99711.81
2019-01-31T22:28:03.083Z,99704.84
2019-01-31T22:30:34.428Z,99707.62
2019-01-31T22:33:03.762Z,99701.61
2019-01-31T22:35:33.253Z,99692.00
2019-01-31T22:38:02.566Z,99689.28
2019-01-31T22:40:31.876Z,99695.62
2019-01-31T22:43:01.288Z,99689.73
2019-01-31T22:45:30.602Z,99684.62
2019-01-31T22:48:02.431Z,99688.23
2019-01-31T22:50:32.713Z,99679.68
2019-01-31T22:53:06.115Z,99679.78
2019-01-31T22:55:35.367Z,99670.77
2019-01-31T22:58:05.264Z,99673.42
2019-01-31T23:01:16.741Z,99672.22
2019-01-31T23:03:46.050Z,99674.02
2019-01-31T23:06:16.317Z,99660.65
2019-01-31T23:08:45.620Z,99661.59
2019-01-31T23:11:14.968Z,99658.63
2019-01-31T23:13:44.333Z,99654.78
2019-01-31T23:16:13.671Z,99659.13
2019-01-31T23:18:43.061Z,99651.78
2019-01-31T23:21:12.321Z,99651.81
2019-01-31T23:23:41.662Z,99651.41
2019-01-31T23:26:10.911Z,99649.23
2019-01-31T23:28:40.234Z,99641.05
2019-01-31T23:31:09.485Z,99640.65
2019-01-31T23:33:41.091Z,99637.61
2019-01-31T23:36:08.110Z,99628.11
2019-01-31T23:38:37.411Z,99621.20
2019-01-31T23:41:06.740Z,99626.00
2019-01-31T23:43:36.025Z,99628.19
2019-01-31T23:46:05.583Z,99639.48
2019-01-31T23:48:34.825Z,99636.48
2019-01-31T23:51:04.090Z,99644.33
2019-01-31T23:53:33.379Z,99632.26
2019-01-31T23:56:02.660Z,99641.36
2019-01-31T23:58:32.174Z,99639.17
